Adelaide, CA

2:33 PM PDT on October 21, 2014 (GMT -0700)
Montebello Oaks | Change Station
CLOSE
Current Station
Personal Weather Station
Location: Paso Robles, CA
Elevation: 869 ft
Nearby Weather Stations

Elev 869 ft 35.64 °N, 120.67 °W | Updated 7 minutes ago

Clear
Clear
72.7 °F
Feels Like 77 °F
N
1.0
Wind Variable Wind from NNW
Gusts 6.0 mph

Today
High -- | Low -- °F
--% Chance of Precip.
Yesterday
High -- | Low -- °F
Precip. -- in
7:14 AM 6:19 PM
Waning Crescent, 4% visible
Pressure 29.98 in
Visibility 10.0 miles
Clouds Clear
Heat Index 77 °F
Dew Point 48 °F
Humidity 42%
Rainfall 0.00 in
Snow Depth Not available.
UV 5 out of 12
Pollen 3.20 out of 12
Air Quality Not available.
Flu Activity Sporadic
METAR KPRB 212053Z AUTO 30006KT 10SM CLR 22/07 A2999 RMK AO2 SLP150 T02220072 56027 TSNO

More Conditions Fewer Conditions

Pressure 29.98 in
Visibility 10.0 miles
Clouds Clear
Heat Index 77 °F
Dew Point 48 °F
Humidity 42%
Rainfall 0.00 in
Snow Depth Not available.
UV 5 out of 12
Pollen 3.20 out of 12
Air Quality Not available.
Flu Activity Sporadic
METAR KPRB 212053Z AUTO 30006KT 10SM CLR 22/07 A2999 RMK AO2 SLP150 T02220072 56027 TSNO

More Conditions Fewer Conditions

10-Day Weather Forecast

Almanac

Astronomy

Oct. 21, 2014 Rise Set
Actual Time 7:14 AM PDT 6:19 PM PDT
Civil Twilight 6:48 AM PDT 6:45 PM PDT
Nautical Twilight 6:18 AM PDT 7:15 PM PDT
Astronomical Twilight 5:49 AM PDT 7:44 PM PDT
Moon 5:07 AM PDT 5:12 PM PDT
Length of Visible Light 11h 56m
Length of Day
11h 04m
Tomorrow will be 2m 6s shorter.
Waning Crescent, 4% of the Moon is Illuminated
Today
Waning Crescent
Oct 23
New
Oct 30
First Quarter
Nov 6
Full
Nov 14
Last Quarter

Today's Extremes

State Highs State Lows

Community

WunderPhotos

Upload Photos

1,763,779 photos uploaded!

Nearby

Snow Depth

Station Depth Elevation
Virginia Lakes Ridge 0 in 9200 ft
Leavitt Meadows 1 in 7200 ft
Echo Peak 1 in 7800 ft
Rubicon #2 0 in 7500 ft
Ward Creek #3 1 in 6750 ft

Earthquake Activity

City Distance Mag. Time & Date
Mammoth Lakes, California 165 miles 3.0 11:10 PM PDT
2014-10-20
East Foothills, California 133 miles 2.6 8:16 AM PDT
2014-10-18
Minimum magnitude displayed is 2.5.

Coastal Water Temperatures

Place Temperature
No Stations Reporting

Nearby Weather Stations